Sunday, October 21, 2018, 1:55 AM EDT
Back to Local

KBDL, Bradley International Airport

Location: Windsor Locks, CT, United States Lat: 41.933
Local Time: 1:55 AM EDT ( 5:55 GMT) Lon: -72.683
Time Zone: US/Eastern Elev: 173 ft

Show me the last for .
Show Decoded

2018-10-21 00:51 METAR KBDL 210451Z 30004KT 10SM -RA BKN085 OVC110 08/07 A2960 RMK AO2 RAB46
                 SLP021 P0000 T00830072 401780072 =
2018-10-20 23:51 METAR KBDL 210351Z 13003KT 10SM SCT090 BKN110 09/07 A2960 RMK AO2 SLP024
                 T00940067 =
2018-10-20 22:51 METAR KBDL 210251Z 00000KT 10SM SCT070 BKN090 OVC190 09/06 A2961 RMK AO2 SLP025
                 T00940061 50003 =
2018-10-20 21:51 METAR KBDL 210151Z 00000KT 10SM FEW070 BKN085 BKN180 09/07 A2961 RMK AO2 SLP027
                 T00890067 =
2018-10-20 20:51 METAR KBDL 210051Z COR 23005KT 10SM BKN085 BKN180 09/07 A2960 RMK AO2 SLP024
                 T00890067 =
2018-10-20 19:51 METAR KBDL 202351Z 00000KT 10SM FEW090 FEW130 09/07 A2960 RMK AO2 SLP023 60000
                 T00940067 10178 20094 53003 =
2018-10-20 18:51 METAR KBDL 202251Z 24003KT 10SM SCT090 11/06 A2960 RMK AO2 RAE00 SLP024 P0000
                 T01060061 =
2018-10-20 17:51 METAR KBDL 202151Z 27008KT 10SM -RA FEW048 BKN060 BKN085 BKN250 13/06 A2958 RMK
                 AO2 RAB47 SLP017 PCPN VRY LGT P0000 T01280061 =
2018-10-20 16:51 METAR KBDL 202051Z 31006KT 10SM FEW046 SCT055 BKN085 BKN250 13/07 A2959 RMK AO2
                 WSHFT 2001 SLP018 T01330072 55008 =
2018-10-20 16:21 METAR KBDL 202021Z 33012KT 10SM SCT045 BKN055 BKN085 BKN250 14/07 A2959 RMK AO2
                 WSHFT 2001 T01440067 =
2018-10-20 15:51 METAR KBDL 201951Z 27013KT 10SM FEW050 BKN075 BKN250 18/07 A2958 RMK AO2 SLP016
                 T01780067 =
2018-10-20 14:51 METAR KBDL 201851Z 27011KT 10SM SCT050 BKN070 BKN250 17/07 A2959 RMK AO2 SLP021
                 T01670067 =
2018-10-20 13:51 METAR KBDL 201751Z 23008KT 10SM SCT047 BKN060 17/08 A2961 RMK AO2 SLP026
                 T01720078 10178 20117 57022 =
2018-10-20 12:51 METAR KBDL 201651Z 25009KT 10SM FEW040 BKN047 BKN250 17/07 A2963 RMK AO2 SLP034
                 T01670072 =
2018-10-20 11:51 METAR KBDL 201551Z 23012G19KT 10SM FEW027 SCT045 SCT250 17/08 A2965 RMK AO2
                 SLP041 T01670083 =
2018-10-20 11:09 METAR KBDL 201509Z 23013G22KT 10SM SCT027 SCT045 SCT250 16/09 A2966 =
2018-10-20 10:51 METAR KBDL 201451Z 24012G21KT 10SM BKN027 BKN036 BKN045 14/09 A2968 RMK AO2
                 SLP049 T01440089 58008 =
2018-10-20 10:06 METAR KBDL 201406Z 23010KT 10SM BKN024 BKN032 BKN075 13/09 A2969 RMK AO2
                 T01330094 =
2018-10-20 09:51 METAR KBDL 201351Z 22011KT 10SM SCT024 BKN030 BKN075 14/09 A2968 RMK AO2 SLP051
                 T01390094 =
2018-10-20 08:51 METAR KBDL 201251Z 21011KT 10SM SCT020 BKN055 OVC075 12/09 A2970 RMK AO2 SLP057
                 T01220094 =
2018-10-20 07:51 METAR KBDL 201151Z 21009KT 10SM SCT018 BKN040 OVC046 12/09 A2970 RMK AO2 SLP058
                 60000 T01170089 10122 20106 55010 =
2018-10-20 06:51 METAR KBDL 201051Z 20009G19KT 10SM FEW020 BKN055 OVC085 12/08 A2969 RMK AO2
                 SLP055 T01170083 =
2018-10-20 05:51 METAR KBDL 200951Z 18007KT 10SM FEW020 BKN055 OVC070 11/09 A2971 RMK AO2 SLP061
                 T01110089 =
2018-10-20 04:51 METAR KBDL 200851Z 19009KT 10SM BKN075 BKN085 11/08 A2973 RMK AO2 RAE28 SLP067
                 P0000 60000 T01110083 56030 =
2018-10-20 03:51 METAR KBDL 200751Z 18009KT 9SM -RA BKN075 BKN090 OVC110 12/07 A2974 RMK AO2
                 PRESFR SLP069 RAB08E14B19 P0000 T01170072 =
2018-10-20 02:51 METAR KBDL 200651Z 21008KT 10SM BKN110 BKN130 OVC150 12/06 A2979 RMK AO2 SLP088
                 T01170061 =

Support USWX by starting your Amazon purchase here.